sensor_id;sensor_type;location;lat;lon;timestamp;pressure;altitude;pressure_sealevel;temperature;humidity
79791;BME280;69278;52.220;5.172;2024-03-08T00:00:27;102018.63;;;4.55;81.23
79791;BME280;69278;52.220;5.172;2024-03-08T00:02:54;102019.56;;;4.54;80.97
79791;BME280;69278;52.220;5.172;2024-03-08T00:05:20;102010.03;;;4.53;80.83
79791;BME280;69278;52.220;5.172;2024-03-08T00:07:47;101999.88;;;4.47;80.62
79791;BME280;69278;52.220;5.172;2024-03-08T00:10:14;102001.63;;;4.47;81.03
79791;BME280;69278;52.220;5.172;2024-03-08T00:12:44;101952.63;;;4.16;80.95
79791;BME280;69278;52.220;5.172;2024-03-08T00:15:13;101994.28;;;4.36;80.46
79791;BME280;69278;52.220;5.172;2024-03-08T00:17:43;102003.88;;;4.36;80.62
79791;BME280;69278;52.220;5.172;2024-03-08T00:20:10;101998.72;;;4.34;81.02
79791;BME280;69278;52.220;5.172;2024-03-08T00:22:37;101994.69;;;4.27;81.00
79791;BME280;69278;52.220;5.172;2024-03-08T00:25:05;101998.84;;;4.31;80.89
79791;BME280;69278;52.220;5.172;2024-03-08T00:27:35;101975.75;;;4.24;80.72
79791;BME280;69278;52.220;5.172;2024-03-08T00:30:02;101968.28;;;4.16;80.88
79791;BME280;69278;52.220;5.172;2024-03-08T00:32:29;101991.31;;;4.25;80.72
79791;BME280;69278;52.220;5.172;2024-03-08T00:34:55;101971.84;;;4.14;80.73
79791;BME280;69278;52.220;5.172;2024-03-08T00:37:22;101986.09;;;4.25;81.01
79791;BME280;69278;52.220;5.172;2024-03-08T00:39:49;101987.00;;;4.24;81.03
79791;BME280;69278;52.220;5.172;2024-03-08T00:42:16;101978.41;;;4.22;80.91
79791;BME280;69278;52.220;5.172;2024-03-08T00:44:43;101958.38;;;4.04;80.82
79791;BME280;69278;52.220;5.172;2024-03-08T00:47:10;101975.03;;;4.20;80.33
79791;BME280;69278;52.220;5.172;2024-03-08T00:49:37;101973.41;;;4.18;80.83
79791;BME280;69278;52.220;5.172;2024-03-08T00:52:05;101978.38;;;4.24;80.48
79791;BME280;69278;52.220;5.172;2024-03-08T00:54:34;101978.38;;;4.24;80.28
79791;BME280;69278;52.220;5.172;2024-03-08T00:57:03;101953.09;;;4.06;80.28
79791;BME280;69278;52.220;5.172;2024-03-08T00:59:30;101969.81;;;4.20;80.28
79791;BME280;69278;52.220;5.172;2024-03-08T01:02:02;101969.25;;;4.14;80.06
79791;BME280;69278;52.220;5.172;2024-03-08T01:04:28;101949.91;;;3.99;80.14
79791;BME280;69278;52.220;5.172;2024-03-08T01:06:59;101959.16;;;4.06;80.25
79791;BME280;69278;52.220;5.172;2024-03-08T01:09:29;101938.91;;;3.92;80.12
79791;BME280;69278;52.220;5.172;2024-03-08T01:11:55;101927.91;;;3.86;79.76
79791;BME280;69278;52.220;5.172;2024-03-08T01:14:23;101945.63;;;3.98;79.88
79791;BME280;69278;52.220;5.172;2024-03-08T01:16:51;101921.16;;;3.82;80.23
79791;BME280;69278;52.220;5.172;2024-03-08T01:19:20;101943.22;;;3.93;79.92
79791;BME280;69278;52.220;5.172;2024-03-08T01:21:46;101927.66;;;3.92;79.68
79791;BME280;69278;52.220;5.172;2024-03-08T01:24:13;101927.88;;;3.87;80.09
79791;BME280;69278;52.220;5.172;2024-03-08T01:26:39;101932.88;;;3.92;80.26
79791;BME280;69278;52.220;5.172;2024-03-08T01:29:06;101925.31;;;3.86;80.02
79791;BME280;69278;52.220;5.172;2024-03-08T01:31:33;101925.31;;;3.86;79.92
79791;BME280;69278;52.220;5.172;2024-03-08T01:33:59;101921.06;;;3.83;80.25
79791;BME280;69278;52.220;5.172;2024-03-08T01:36:26;101920.22;;;3.83;80.05
79791;BME280;69278;52.220;5.172;2024-03-08T01:38:53;101915.00;;;3.83;80.59
79791;BME280;69278;52.220;5.172;2024-03-08T01:41:19;101914.22;;;3.81;79.74
79791;BME280;69278;52.220;5.172;2024-03-08T01:43:46;101911.72;;;3.79;79.93
79791;BME280;69278;52.220;5.172;2024-03-08T01:46:15;101882.66;;;3.68;80.22
79791;BME280;69278;52.220;5.172;2024-03-08T01:48:44;101888.69;;;3.70;80.02
79791;BME280;69278;52.220;5.172;2024-03-08T01:51:12;101879.16;;;3.69;79.93
79791;BME280;69278;52.220;5.172;2024-03-08T01:53:42;101889.25;;;3.77;79.97
79791;BME280;69278;52.220;5.172;2024-03-08T01:56:12;101892.75;;;3.76;79.57
79791;BME280;69278;52.220;5.172;2024-03-08T01:58:43;101870.78;;;3.63;79.75
79791;BME280;69278;52.220;5.172;2024-03-08T02:01:13;101881.03;;;3.66;79.40
79791;BME280;69278;52.220;5.172;2024-03-08T02:03:43;101890.31;;;3.73;79.55
79791;BME280;69278;52.220;5.172;2024-03-08T02:06:11;101887.88;;;3.68;79.70
79791;BME280;69278;52.220;5.172;2024-03-08T02:08:41;101887.16;;;3.65;79.74
79791;BME280;69278;52.220;5.172;2024-03-08T02:11:08;101882.88;;;3.64;79.76
79791;BME280;69278;52.220;5.172;2024-03-08T02:13:35;101868.63;;;3.52;79.58
79791;BME280;69278;52.220;5.172;2024-03-08T02:16:01;101889.13;;;3.60;79.60
79791;BME280;69278;52.220;5.172;2024-03-08T02:18:29;101874.47;;;3.57;79.58
79791;BME280;69278;52.220;5.172;2024-03-08T02:21:00;101893.47;;;3.59;79.61
79791;BME280;69278;52.220;5.172;2024-03-08T02:23:29;101874.47;;;3.57;79.54
79791;BME280;69278;52.220;5.172;2024-03-08T02:25:56;101876.22;;;3.57;79.51
79791;BME280;69278;52.220;5.172;2024-03-08T02:28:24;101872.78;;;3.56;79.38
79791;BME280;69278;52.220;5.172;2024-03-08T02:30:55;101856.53;;;3.51;79.22
79791;BME280;69278;52.220;5.172;2024-03-08T02:33:26;101865.38;;;3.47;79.66
79791;BME280;69278;52.220;5.172;2024-03-08T02:35:54;101862.84;;;3.46;79.67
79791;BME280;69278;52.220;5.172;2024-03-08T02:38:22;101857.00;;;3.41;79.75
79791;BME280;69278;52.220;5.172;2024-03-08T02:40:50;101793.50;;;3.04;79.80
79791;BME280;69278;52.220;5.172;2024-03-08T02:43:18;101848.41;;;3.39;79.64
79791;BME280;69278;52.220;5.172;2024-03-08T02:45:46;101776.34;;;3.00;79.75
79791;BME280;69278;52.220;5.172;2024-03-08T02:48:14;101840.50;;;3.40;79.50
79791;BME280;69278;52.220;5.172;2024-03-08T02:50:41;101844.03;;;3.39;79.61
79791;BME280;69278;52.220;5.172;2024-03-08T02:53:09;101834.00;;;3.30;79.29
79791;BME280;69278;52.220;5.172;2024-03-08T02:55:39;101843.44;;;3.32;79.43
79791;BME280;69278;52.220;5.172;2024-03-08T02:58:07;101836.56;;;3.31;79.44
79791;BME280;69278;52.220;5.172;2024-03-08T03:00:38;101830.72;;;3.26;79.51
79791;BME280;69278;52.220;5.172;2024-03-08T03:03:08;101830.75;;;3.25;79.56
79791;BME280;69278;52.220;5.172;2024-03-08T03:05:35;101826.41;;;3.25;79.56
79791;BME280;69278;52.220;5.172;2024-03-08T03:08:02;101827.31;;;3.24;79.76
79791;BME280;69278;52.220;5.172;2024-03-08T03:10:30;101820.53;;;3.20;79.36
79791;BME280;69278;52.220;5.172;2024-03-08T03:12:57;101809.75;;;3.09;79.77
79791;BME280;69278;52.220;5.172;2024-03-08T03:15:24;101810.53;;;3.11;79.95
79791;BME280;69278;52.220;5.172;2024-03-08T03:17:53;101808.72;;;3.13;79.88
79791;BME280;69278;52.220;5.172;2024-03-08T03:20:20;101806.22;;;3.10;79.76
79791;BME280;69278;52.220;5.172;2024-03-08T03:22:53;101813.25;;;3.08;79.93
79791;BME280;69278;52.220;5.172;2024-03-08T03:25:20;101789.47;;;2.97;80.15
79791;BME280;69278;52.220;5.172;2024-03-08T03:27:55;101802.00;;;3.08;80.07
79791;BME280;69278;52.220;5.172;2024-03-08T03:30:25;101803.81;;;3.06;80.16
79791;BME280;69278;52.220;5.172;2024-03-08T03:32:53;101792.97;;;2.96;80.01
79791;BME280;69278;52.220;5.172;2024-03-08T03:35:21;101796.50;;;2.95;79.88
79791;BME280;69278;52.220;5.172;2024-03-08T03:37:49;101799.91;;;2.96;80.11
79791;BME280;69278;52.220;5.172;2024-03-08T03:40:37;101771.97;;;2.81;79.74
79791;BME280;69278;52.220;5.172;2024-03-08T03:43:03;101796.72;;;2.89;80.35
79791;BME280;69278;52.220;5.172;2024-03-08T03:45:30;101790.69;;;2.89;80.12
79791;BME280;69278;52.220;5.172;2024-03-08T03:48:03;101794.13;;;2.89;80.16
79791;BME280;69278;52.220;5.172;2024-03-08T03:50:30;101789.06;;;2.86;80.33
79791;BME280;69278;52.220;5.172;2024-03-08T03:52:57;101775.53;;;2.78;80.05
79791;BME280;69278;52.220;5.172;2024-03-08T03:55:24;101781.41;;;2.83;80.49
79791;BME280;69278;52.220;5.172;2024-03-08T03:57:50;101784.91;;;2.82;80.33
79791;BME280;69278;52.220;5.172;2024-03-08T04:00:17;101765.66;;;2.66;80.21
79791;BME280;69278;52.220;5.172;2024-03-08T04:02:44;101781.06;;;2.71;80.14
79791;BME280;69278;52.220;5.172;2024-03-08T04:05:11;101783.19;;;2.81;80.32
79791;BME280;69278;52.220;5.172;2024-03-08T04:07:38;101777.16;;;2.81;79.82
79791;BME280;69278;52.220;5.172;2024-03-08T04:10:06;101772.00;;;2.79;80.18
79791;BME280;69278;52.220;5.172;2024-03-08T04:12:34;101759.22;;;2.75;80.09
79791;BME280;69278;52.220;5.172;2024-03-08T04:15:01;101780.47;;;2.84;79.55
79791;BME280;69278;52.220;5.172;2024-03-08T04:17:28;101755.75;;;2.74;79.98
79791;BME280;69278;52.220;5.172;2024-03-08T04:19:54;101768.25;;;2.86;79.74
79791;BME280;69278;52.220;5.172;2024-03-08T04:22:21;101710.13;;;2.47;79.51
79791;BME280;69278;52.220;5.172;2024-03-08T04:24:47;101769.56;;;2.76;79.37
79791;BME280;69278;52.220;5.172;2024-03-08T04:27:14;101712.06;;;2.42;79.71
79791;BME280;69278;52.220;5.172;2024-03-08T04:29:41;101767.00;;;2.75;79.81
79791;BME280;69278;52.220;5.172;2024-03-08T04:32:08;101768.72;;;2.76;79.48
79791;BME280;69278;52.220;5.172;2024-03-08T04:34:35;101758.44;;;2.73;79.54
79791;BME280;69278;52.220;5.172;2024-03-08T04:37:02;101756.03;;;2.68;79.27
79791;BME280;69278;52.220;5.172;2024-03-08T04:39:31;101763.72;;;2.71;79.09
79791;BME280;69278;52.220;5.172;2024-03-08T04:41:59;101760.28;;;2.69;79.14
79791;BME280;69278;52.220;5.172;2024-03-08T04:44:32;101757.69;;;2.69;79.62
79791;BME280;69278;52.220;5.172;2024-03-08T04:47:00;101743.22;;;2.63;79.36
79791;BME280;69278;52.220;5.172;2024-03-08T04:49:27;101751.47;;;2.73;79.00
79791;BME280;69278;52.220;5.172;2024-03-08T04:51:55;101749.72;;;2.74;78.91
79791;BME280;69278;52.220;5.172;2024-03-08T04:54:21;101754.06;;;2.73;79.07
79791;BME280;69278;52.220;5.172;2024-03-08T04:56:48;101754.13;;;2.72;78.92
79791;BME280;69278;52.220;5.172;2024-03-08T04:59:14;101741.41;;;2.65;78.90
79791;BME280;69278;52.220;5.172;2024-03-08T05:01:41;101746.47;;;2.68;78.70
79791;BME280;69278;52.220;5.172;2024-03-08T05:04:07;101757.69;;;2.69;78.63
79791;BME280;69278;52.220;5.172;2024-03-08T05:06:35;101725.38;;;2.54;78.10
79791;BME280;69278;52.220;5.172;2024-03-08T05:09:03;101738.78;;;2.65;78.73
79791;BME280;69278;52.220;5.172;2024-03-08T05:11:43;101749.28;;;2.64;78.84
79791;BME280;69278;52.220;5.172;2024-03-08T05:14:14;101718.44;;;2.55;78.64
79791;BME280;69278;52.220;5.172;2024-03-08T05:16:44;101734.44;;;2.66;78.42
79791;BME280;69278;52.220;5.172;2024-03-08T05:19:19;101725.06;;;2.62;78.31
79791;BME280;69278;52.220;5.172;2024-03-08T05:21:47;101737.16;;;2.63;78.39
79791;BME280;69278;52.220;5.172;2024-03-08T05:24:15;101736.28;;;2.64;78.29
79791;BME280;69278;52.220;5.172;2024-03-08T05:26:45;101733.66;;;2.64;78.44
79791;BME280;69278;52.220;5.172;2024-03-08T05:29:12;101702.44;;;2.44;77.93
79791;BME280;69278;52.220;5.172;2024-03-08T05:34:13;101714.00;;;2.57;77.88
79791;BME280;69278;52.220;5.172;2024-03-08T05:36:41;101715.59;;;2.61;78.08
79791;BME280;69278;52.220;5.172;2024-03-08T05:39:11;101712.06;;;2.62;78.04
79791;BME280;69278;52.220;5.172;2024-03-08T05:41:38;101720.31;;;2.72;77.69
79791;BME280;69278;52.220;5.172;2024-03-08T05:44:05;101727.22;;;2.73;77.77
79791;BME280;69278;52.220;5.172;2024-03-08T05:46:32;101724.63;;;2.73;77.45
79791;BME280;69278;52.220;5.172;2024-03-08T05:48:58;101705.06;;;2.64;77.58
79791;BME280;69278;52.220;5.172;2024-03-08T05:51:25;101720.19;;;2.75;77.69
79791;BME280;69278;52.220;5.172;2024-03-08T05:53:55;101721.13;;;2.74;77.50
79791;BME280;69278;52.220;5.172;2024-03-08T05:56:23;101715.97;;;2.72;77.55
79791;BME280;69278;52.220;5.172;2024-03-08T05:58:50;101712.50;;;2.72;77.41
79791;BME280;69278;52.220;5.172;2024-03-08T06:01:16;101694.59;;;2.65;77.43
79791;BME280;69278;52.220;5.172;2024-03-08T06:03:43;101719.34;;;2.74;77.79
79791;BME280;69278;52.220;5.172;2024-03-08T06:06:12;101718.53;;;2.74;77.37
79791;BME280;69278;52.220;5.172;2024-03-08T06:08:39;101715.84;;;2.75;76.93
79791;BME280;69278;52.220;5.172;2024-03-08T06:11:06;101702.19;;;2.70;77.27
79791;BME280;69278;52.220;5.172;2024-03-08T06:13:32;101703.03;;;2.71;76.53
79791;BME280;69278;52.220;5.172;2024-03-08T06:16:03;101686.88;;;2.64;77.18
79791;BME280;69278;52.220;5.172;2024-03-08T06:18:35;101656.44;;;2.46;76.70
79791;BME280;69278;52.220;5.172;2024-03-08T06:21:05;101695.25;;;2.71;77.17
79791;BME280;69278;52.220;5.172;2024-03-08T06:23:32;101705.75;;;2.67;77.08
79791;BME280;69278;52.220;5.172;2024-03-08T06:25:59;101694.78;;;2.61;77.07
79791;BME280;69278;52.220;5.172;2024-03-08T06:28:26;101690.50;;;2.60;77.23
79791;BME280;69278;52.220;5.172;2024-03-08T06:30:52;101710.13;;;2.67;77.24
79791;BME280;69278;52.220;5.172;2024-03-08T06:33:19;101699.72;;;2.67;77.27
79791;BME280;69278;52.220;5.172;2024-03-08T06:35:45;101658.31;;;2.42;77.08
79791;BME280;69278;52.220;5.172;2024-03-08T06:38:12;101686.78;;;2.65;76.99
79791;BME280;69278;52.220;5.172;2024-03-08T06:40:39;101689.47;;;2.64;77.10
79791;BME280;69278;52.220;5.172;2024-03-08T06:43:06;101705.69;;;2.69;76.83
79791;BME280;69278;52.220;5.172;2024-03-08T06:45:33;101695.28;;;2.69;77.31
79791;BME280;69278;52.220;5.172;2024-03-08T06:47:59;101685.16;;;2.63;76.65
79791;BME280;69278;52.220;5.172;2024-03-08T06:50:26;101689.13;;;2.72;76.89
79791;BME280;69278;52.220;5.172;2024-03-08T06:52:53;101673.72;;;2.67;76.80
79791;BME280;69278;52.220;5.172;2024-03-08T06:55:20;101692.31;;;2.78;76.65
79791;BME280;69278;52.220;5.172;2024-03-08T06:57:47;101695.69;;;2.80;76.03
79791;BME280;69278;52.220;5.172;2024-03-08T07:00:13;101670.09;;;2.71;76.60
79791;BME280;69278;52.220;5.172;2024-03-08T07:02:45;101685.97;;;2.84;76.70
79791;BME280;69278;52.220;5.172;2024-03-08T07:05:12;101677.72;;;2.74;76.38
79791;BME280;69278;52.220;5.172;2024-03-08T07:07:38;101690.06;;;3.09;78.81
79791;BME280;69278;52.220;5.172;2024-03-08T07:10:08;101670.63;;;4.08;85.05
79791;BME280;69278;52.220;5.172;2024-03-08T07:12:37;101662.44;;;4.67;85.69
79791;BME280;69278;52.220;5.172;2024-03-08T07:15:05;101666.44;;;5.22;86.80
79791;BME280;69278;52.220;5.172;2024-03-08T07:17:32;101622.56;;;5.60;86.24
79791;BME280;69278;52.220;5.172;2024-03-08T07:20:00;101658.16;;;6.08;81.88
79791;BME280;69278;52.220;5.172;2024-03-08T07:22:33;101661.75;;;6.37;81.57
79791;BME280;69278;52.220;5.172;2024-03-08T07:24:59;101656.84;;;6.75;81.98
79791;BME280;69278;52.220;5.172;2024-03-08T07:27:44;101658.44;;;7.05;78.50
79791;BME280;69278;52.220;5.172;2024-03-08T07:30:12;101620.09;;;7.18;77.01
79791;BME280;69278;52.220;5.172;2024-03-08T07:32:38;101643.09;;;7.27;71.91
79791;BME280;69278;52.220;5.172;2024-03-08T07:35:05;101641.88;;;6.62;69.27
79791;BME280;69278;52.220;5.172;2024-03-08T07:37:32;101645.38;;;6.03;68.58
79791;BME280;69278;52.220;5.172;2024-03-08T07:39:58;101648.94;;;5.56;67.45
79791;BME280;69278;52.220;5.172;2024-03-08T07:42:25;101651.94;;;5.17;69.11
79791;BME280;69278;52.220;5.172;2024-03-08T07:44:52;101652.03;;;4.83;68.26
79791;BME280;69278;52.220;5.172;2024-03-08T07:47:19;101648.78;;;4.62;70.17
79791;BME280;69278;52.220;5.172;2024-03-08T07:49:48;101645.25;;;4.46;70.26
79791;BME280;69278;52.220;5.172;2024-03-08T07:52:15;101636.75;;;4.59;71.93
79791;BME280;69278;52.220;5.172;2024-03-08T07:54:44;101645.19;;;4.47;71.24
79791;BME280;69278;52.220;5.172;2024-03-08T07:57:10;101644.59;;;4.25;70.48
79791;BME280;69278;52.220;5.172;2024-03-08T07:59:37;101631.44;;;4.10;71.09
79791;BME280;69278;52.220;5.172;2024-03-08T08:02:03;101632.31;;;4.10;71.37
79791;BME280;69278;52.220;5.172;2024-03-08T08:04:30;101623.19;;;4.01;71.70
79791;BME280;69278;52.220;5.172;2024-03-08T08:06:57;101636.91;;;4.05;71.59
79791;BME280;69278;52.220;5.172;2024-03-08T08:09:23;101626.03;;;3.97;71.77
79791;BME280;69278;52.220;5.172;2024-03-08T08:11:55;101629.56;;;4.30;74.53
79791;BME280;69278;52.220;5.172;2024-03-08T08:14:22;101633.06;;;4.46;72.89
79791;BME280;69278;52.220;5.172;2024-03-08T08:16:48;101627.47;;;4.37;72.00
79791;BME280;69278;52.220;5.172;2024-03-08T08:19:19;101597.41;;;4.13;71.87
79791;BME280;69278;52.220;5.172;2024-03-08T08:21:45;101609.16;;;4.21;71.38
79791;BME280;69278;52.220;5.172;2024-03-08T08:24:12;101615.16;;;4.23;71.46
79791;BME280;69278;52.220;5.172;2024-03-08T08:26:39;101617.75;;;4.23;71.00
79791;BME280;69278;52.220;5.172;2024-03-08T08:29:07;101597.28;;;4.16;71.03
79791;BME280;69278;52.220;5.172;2024-03-08T08:31:33;101605.63;;;4.22;71.62
79791;BME280;69278;52.220;5.172;2024-03-08T08:34:00;101590.53;;;4.12;70.90
79791;BME280;69278;52.220;5.172;2024-03-08T08:36:27;101592.81;;;4.18;71.42
79791;BME280;69278;52.220;5.172;2024-03-08T08:38:56;101596.91;;;4.23;70.89
79791;BME280;69278;52.220;5.172;2024-03-08T08:41:24;101597.56;;;4.27;71.19
79791;BME280;69278;52.220;5.172;2024-03-08T08:43:51;101594.97;;;4.27;70.87
79791;BME280;69278;52.220;5.172;2024-03-08T08:46:33;101592.44;;;4.25;71.39
79791;BME280;69278;52.220;5.172;2024-03-08T08:49:07;101587.84;;;4.30;70.67
79791;BME280;69278;52.220;5.172;2024-03-08T08:51:37;101585.91;;;4.34;71.34
79791;BME280;69278;52.220;5.172;2024-03-08T08:54:03;101583.50;;;4.46;71.31
79791;BME280;69278;52.220;5.172;2024-03-08T08:56:30;101583.38;;;4.49;71.17
79791;BME280;69278;52.220;5.172;2024-03-08T08:58:56;101582.28;;;4.53;70.81
79791;BME280;69278;52.220;5.172;2024-03-08T09:01:24;101404.38;;;3.50;70.47
79791;BME280;69278;52.220;5.172;2024-03-08T09:03:50;101569.69;;;4.61;70.31
79791;BME280;69278;52.220;5.172;2024-03-08T09:06:18;101574.66;;;4.66;70.13
79791;BME280;69278;52.220;5.172;2024-03-08T09:08:44;101561.50;;;4.67;70.29
79791;BME280;69278;52.220;5.172;2024-03-08T09:11:12;101561.97;;;4.76;69.80
79791;BME280;69278;52.220;5.172;2024-03-08T09:13:38;101562.56;;;4.81;70.41
79791;BME280;69278;52.220;5.172;2024-03-08T09:16:05;101550.28;;;4.83;70.36
79791;BME280;69278;52.220;5.172;2024-03-08T09:18:33;101550.72;;;5.22;71.54
79791;BME280;69278;52.220;5.172;2024-03-08T09:20:59;101517.16;;;5.46;71.44
79791;BME280;69278;52.220;5.172;2024-03-08T09:23:26;101536.09;;;5.94;70.47
79791;BME280;69278;52.220;5.172;2024-03-08T09:25:57;101538.69;;;6.24;68.51
79791;BME280;69278;52.220;5.172;2024-03-08T09:28:24;101517.03;;;6.36;68.71
79791;BME280;69278;52.220;5.172;2024-03-08T09:30:51;101525.72;;;6.65;69.84
79791;BME280;69278;52.220;5.172;2024-03-08T09:33:25;101510.75;;;6.67;66.00
79791;BME280;69278;52.220;5.172;2024-03-08T09:35:53;101516.81;;;6.82;66.69
79791;BME280;69278;52.220;5.172;2024-03-08T09:38:20;101511.41;;;6.71;64.42
79791;BME280;69278;52.220;5.172;2024-03-08T09:40:47;101511.69;;;6.52;65.35
79791;BME280;69278;52.220;5.172;2024-03-08T09:43:14;101510.66;;;6.40;65.47
79791;BME280;69278;52.220;5.172;2024-03-08T09:45:42;101488.59;;;6.16;65.47
79791;BME280;69278;52.220;5.172;2024-03-08T09:48:12;101504.59;;;6.26;65.49
79791;BME280;69278;52.220;5.172;2024-03-08T09:50:40;101470.31;;;6.02;65.46
79791;BME280;69278;52.220;5.172;2024-03-08T09:53:07;101464.31;;;6.00;65.55
79791;BME280;69278;52.220;5.172;2024-03-08T09:55:38;101494.69;;;6.17;65.96
79791;BME280;69278;52.220;5.172;2024-03-08T09:58:12;101430.41;;;5.84;65.66
79791;BME280;69278;52.220;5.172;2024-03-08T10:00:58;101470.19;;;6.18;66.44
79791;BME280;69278;52.220;5.172;2024-03-08T10:03:24;101473.50;;;6.21;66.34
79791;BME280;69278;52.220;5.172;2024-03-08T10:05:54;101473.03;;;6.29;66.16
79791;BME280;69278;52.220;5.172;2024-03-08T10:08:23;101473.59;;;6.34;65.49
79791;BME280;69278;52.220;5.172;2024-03-08T10:10:50;101479.44;;;6.37;65.66
79791;BME280;69278;52.220;5.172;2024-03-08T10:13:17;101414.94;;;6.10;65.04
79791;BME280;69278;52.220;5.172;2024-03-08T10:15:46;101451.97;;;6.44;65.41
79791;BME280;69278;52.220;5.172;2024-03-08T10:18:12;101456.75;;;6.52;65.18
79791;BME280;69278;52.220;5.172;2024-03-08T10:20:39;101426.78;;;6.43;65.17
79791;BME280;69278;52.220;5.172;2024-03-08T10:23:05;101451.78;;;6.61;64.62
79791;BME280;69278;52.220;5.172;2024-03-08T10:25:37;101446.16;;;6.67;64.61
79791;BME280;69278;52.220;5.172;2024-03-08T10:28:04;101433.53;;;6.74;64.52
79791;BME280;69278;52.220;5.172;2024-03-08T10:30:31;101431.66;;;6.76;64.05
79791;BME280;69278;52.220;5.172;2024-03-08T10:32:58;101416.03;;;6.75;63.71
79791;BME280;69278;52.220;5.172;2024-03-08T10:35:25;101416.41;;;6.83;63.29
79791;BME280;69278;52.220;5.172;2024-03-08T10:37:56;101418.13;;;6.96;63.81
79791;BME280;69278;52.220;5.172;2024-03-08T10:40:27;101358.84;;;6.68;63.99
79791;BME280;69278;52.220;5.172;2024-03-08T10:42:59;101389.88;;;7.01;62.89
79791;BME280;69278;52.220;5.172;2024-03-08T10:50:38;101389.72;;;7.29;62.90
79791;BME280;69278;52.220;5.172;2024-03-08T10:53:06;101386.41;;;7.40;62.26
79791;BME280;69278;52.220;5.172;2024-03-08T10:55:33;101341.94;;;7.26;62.10
79791;BME280;69278;52.220;5.172;2024-03-08T10:58:03;101366.28;;;7.53;62.12
79791;BME280;69278;52.220;5.172;2024-03-08T11:00:30;101362.41;;;7.59;61.40
79791;BME280;69278;52.220;5.172;2024-03-08T11:02:58;101342.69;;;7.66;62.67
79791;BME280;69278;52.220;5.172;2024-03-08T11:05:42;101354.63;;;7.95;61.32
79791;BME280;69278;52.220;5.172;2024-03-08T11:08:19;101350.28;;;8.07;61.51
79791;BME280;69278;52.220;5.172;2024-03-08T11:10:47;101342.19;;;8.22;61.32
79791;BME280;69278;52.220;5.172;2024-03-08T11:13:40;101307.28;;;8.09;60.15
79791;BME280;69278;52.220;5.172;2024-03-08T11:16:09;101346.25;;;8.39;58.83
79791;BME280;69278;52.220;5.172;2024-03-08T11:18:37;101337.13;;;8.44;58.92
79791;BME280;69278;52.220;5.172;2024-03-08T11:21:04;101326.41;;;8.47;58.96
79791;BME280;69278;52.220;5.172;2024-03-08T11:23:38;101310.66;;;8.47;58.87
79791;BME280;69278;52.220;5.172;2024-03-08T11:26:22;101322.03;;;8.59;58.20
79791;BME280;69278;52.220;5.172;2024-03-08T11:28:50;101303.75;;;8.57;58.23
79791;BME280;69278;52.220;5.172;2024-03-08T11:31:23;101309.81;;;8.71;58.28
79791;BME280;69278;52.220;5.172;2024-03-08T11:33:51;101301.94;;;8.71;57.33
79791;BME280;69278;52.220;5.172;2024-03-08T11:38:49;101276.91;;;8.54;56.87
79791;BME280;69278;52.220;5.172;2024-03-08T11:41:20;101282.53;;;8.60;57.12
79791;BME280;69278;52.220;5.172;2024-03-08T11:43:47;101266.41;;;8.54;56.21
79791;BME280;69278;52.220;5.172;2024-03-08T11:46:16;101277.56;;;8.68;56.56
79791;BME280;69278;52.220;5.172;2024-03-08T11:48:44;101265.78;;;8.74;57.09
79791;BME280;69278;52.220;5.172;2024-03-08T11:51:11;101251.59;;;8.77;56.81
79791;BME280;69278;52.220;5.172;2024-03-08T11:53:38;101235.94;;;8.75;56.63
79791;BME280;69278;52.220;5.172;2024-03-08T11:56:10;101198.16;;;8.54;56.43
79791;BME280;69278;52.220;5.172;2024-03-08T11:58:38;101240.63;;;8.94;56.39
79791;BME280;69278;52.220;5.172;2024-03-08T12:01:07;101233.16;;;9.00;56.31
79791;BME280;69278;52.220;5.172;2024-03-08T12:03:35;101236.34;;;9.04;56.26
79791;BME280;69278;52.220;5.172;2024-03-08T12:06:02;101216.66;;;9.09;55.57
79791;BME280;69278;52.220;5.172;2024-03-08T12:08:32;101226.72;;;9.15;55.86
79791;BME280;69278;52.220;5.172;2024-03-08T12:10:59;101214.31;;;9.17;54.93
79791;BME280;69278;52.220;5.172;2024-03-08T12:13:27;101193.16;;;9.08;55.13
79791;BME280;69278;52.220;5.172;2024-03-08T12:15:59;101195.31;;;9.25;55.54
79791;BME280;69278;52.220;5.172;2024-03-08T12:18:26;101205.81;;;9.36;55.53
79791;BME280;69278;52.220;5.172;2024-03-08T12:21:07;101197.34;;;9.44;55.36
79791;BME280;69278;52.220;5.172;2024-03-08T12:23:35;101193.41;;;9.49;54.08
79791;BME280;69278;52.220;5.172;2024-03-08T12:26:15;101190.50;;;9.52;54.11
79791;BME280;69278;52.220;5.172;2024-03-08T12:28:43;101169.28;;;9.44;54.72
79791;BME280;69278;52.220;5.172;2024-03-08T12:31:16;101179.75;;;9.66;54.93
79791;BME280;69278;52.220;5.172;2024-03-08T12:36:16;101176.25;;;9.77;53.61
79791;BME280;69278;52.220;5.172;2024-03-08T12:38:49;101175.50;;;9.86;53.77
79791;BME280;69278;52.220;5.172;2024-03-08T12:41:16;101171.44;;;9.93;53.06
79791;BME280;69278;52.220;5.172;2024-03-08T12:43:47;101151.41;;;9.81;52.89
79791;BME280;69278;52.220;5.172;2024-03-08T12:46:17;101160.66;;;9.96;52.15
79791;BME280;69278;52.220;5.172;2024-03-08T12:48:47;101161.97;;;10.01;52.37
79791;BME280;69278;52.220;5.172;2024-03-08T12:51:17;101165.19;;;10.05;51.88
79791;BME280;69278;52.220;5.172;2024-03-08T12:53:45;101122.66;;;9.89;51.83
79791;BME280;69278;52.220;5.172;2024-03-08T12:56:31;101147.13;;;10.12;52.06
79791;BME280;69278;52.220;5.172;2024-03-08T12:59:01;101152.25;;;10.13;51.58
79791;BME280;69278;52.220;5.172;2024-03-08T13:01:28;101136.69;;;10.10;52.50
79791;BME280;69278;52.220;5.172;2024-03-08T13:03:55;101141.56;;;10.26;52.65
79791;BME280;69278;52.220;5.172;2024-03-08T13:06:24;101134.97;;;10.31;52.75
79791;BME280;69278;52.220;5.172;2024-03-08T13:08:51;101109.97;;;10.26;52.37
79791;BME280;69278;52.220;5.172;2024-03-08T13:11:22;101135.13;;;10.39;52.13
79791;BME280;69278;52.220;5.172;2024-03-08T13:13:50;101125.19;;;10.43;52.51
79791;BME280;69278;52.220;5.172;2024-03-08T13:16:17;101118.97;;;10.44;51.72
79791;BME280;69278;52.220;5.172;2024-03-08T13:18:46;101117.84;;;10.46;51.05